Airport Name : Learmonth

Other Name : Learmonth

ICAO : YPLM

IATA : LEA

FAA :

Latitude : -22.235556

Longitude : 114.088611

Country : Australia

Local Date and Time : 27 Jan 2022 07:05

 

TAF (Terminal Aerodrome Forecast)

TAF YPLM 261728Z 2618/2718 23013KT 9999 FEW015 FM270700 25018KT CAVOK

 

METAR (METeorological Aerodrome Report)

YPLM 262300Z AUTO 22006KT 9999 // OVC019 24/20 Q1004 RF00.0/000.0

YPLM 262230Z AUTO 20001KT 9999 // OVC017 23/20 Q1003 RF00.0/000.0

YPLM 262200Z AUTO 19003KT 9999 // OVC017 22/20 Q1003

YPLM 262130Z AUTO 22005KT 9999 // BKN017 22/20 Q1003 RF00.0/000.0

YPLM 262100Z AUTO 21006KT 9999 // NCD 23/20 Q1003

YPLM 262030Z AUTO 24009KT 9999 // NCD 24/20 Q1002 RF00.0/000.0

YPLM 262000Z AUTO 25010KT 9999 // NCD 24/20 Q1002

YPLM 261930Z AUTO 24011KT 9999 // NCD 24/20 Q1002 RF00.0/000.0

To Charter a Jet Click here.